createdAt,value
2023-01-15T00:02:38.648Z,100.0
2023-01-15T00:08:10.155Z,100.0
2023-01-15T00:13:41.950Z,100.0
2023-01-15T00:19:17.961Z,100.0
2023-01-15T00:24:49.752Z,100.0
2023-01-15T00:30:21.436Z,100.0
2023-01-15T00:35:53.244Z,100.0
2023-01-15T00:41:24.842Z,100.0
2023-01-15T00:46:56.433Z,100.0
2023-01-15T00:52:28.274Z,99.51
2023-01-15T00:58:00.017Z,99.48
2023-01-15T01:03:31.815Z,99.1
2023-01-15T01:09:03.530Z,98.61
2023-01-15T01:14:35.228Z,98.91
2023-01-15T01:20:11.480Z,98.11
2023-01-15T01:25:43.085Z,98.09
2023-01-15T01:31:15.015Z,97.67
2023-01-15T01:36:46.440Z,97.71
2023-01-15T01:42:18.303Z,98.22
2023-01-15T01:47:50.028Z,98.63
2023-01-15T01:53:21.790Z,98.32
2023-01-15T01:58:53.509Z,98.54
2023-01-15T02:04:30.747Z,98.2
2023-01-15T02:09:56.960Z,98.55
2023-01-15T02:15:28.522Z,98.82
2023-01-15T02:21:04.968Z,98.75
2023-01-15T02:26:36.445Z,99.74
2023-01-15T02:32:08.293Z,99.66
2023-01-15T02:37:39.926Z,100.0
2023-01-15T02:43:11.602Z,99.57
2023-01-15T02:48:43.310Z,100.0
2023-01-15T02:54:15.038Z,100.0
2023-01-15T02:59:46.843Z,100.0
2023-01-15T03:05:18.478Z,100.0
2023-01-15T03:10:50.431Z,100.0
2023-01-15T03:16:22.189Z,100.0
2023-01-15T03:21:58.747Z,100.0
2023-01-15T03:27:29.839Z,100.0
2023-01-15T03:33:01.579Z,100.0
2023-01-15T03:38:33.449Z,99.88
2023-01-15T03:44:04.996Z,99.58
2023-01-15T03:49:36.741Z,99.04
2023-01-15T03:55:08.562Z,99.27
2023-01-15T04:00:40.973Z,99.28
2023-01-15T04:06:11.979Z,98.49
2023-01-15T04:11:43.637Z,98.32
2023-01-15T04:17:15.561Z,98.25
2023-01-15T04:22:51.505Z,98.22
2023-01-15T04:28:23.531Z,98.87
2023-01-15T04:33:55.592Z,98.46
2023-01-15T04:39:26.895Z,98.09
2023-01-15T04:44:58.631Z,98.58
2023-01-15T04:50:30.134Z,99.62
2023-01-15T04:56:01.716Z,100.0
2023-01-15T05:01:33.704Z,100.0
2023-01-15T05:07:05.284Z,100.0
2023-01-15T05:12:36.885Z,100.0
2023-01-15T05:18:08.603Z,100.0
2023-01-15T05:23:47.160Z,100.0
2023-01-15T05:29:18.661Z,100.0
2023-01-15T05:34:50.155Z,100.0
2023-01-15T05:40:21.907Z,100.0
2023-01-15T05:45:53.693Z,100.0
2023-01-15T05:51:25.304Z,100.0
2023-01-15T05:56:57.051Z,100.0
2023-01-15T06:02:28.770Z,100.0
2023-01-15T06:08:01.756Z,100.0
2023-01-15T06:13:32.340Z,100.0
2023-01-15T06:19:03.958Z,100.0
2023-01-15T06:24:40.138Z,100.0
2023-01-15T06:30:11.884Z,100.0
2023-01-15T06:35:43.594Z,100.0
2023-01-15T06:41:15.357Z,100.0
2023-01-15T06:46:47.081Z,100.0
2023-01-15T06:52:18.885Z,100.0
2023-01-15T06:57:50.576Z,100.0
2023-01-15T07:03:22.180Z,100.0
2023-01-15T07:08:53.992Z,100.0
2023-01-15T07:14:25.644Z,100.0
2023-01-15T07:19:57.357Z,100.0
2023-01-15T07:25:33.544Z,100.0
2023-01-15T07:31:05.341Z,100.0
2023-01-15T07:36:37.069Z,100.0
2023-01-15T07:42:08.601Z,100.0
2023-01-15T07:47:40.311Z,100.0
2023-01-15T07:53:12.096Z,100.0
2023-01-15T07:58:43.819Z,100.0
2023-01-15T08:04:15.658Z,100.0
2023-01-15T08:09:47.275Z,100.0
2023-01-15T08:15:18.976Z,100.0
2023-01-15T08:20:50.753Z,100.0
2023-01-15T08:26:27.447Z,100.0
2023-01-15T08:31:58.609Z,100.0
2023-01-15T08:37:30.383Z,100.0
2023-01-15T08:43:02.083Z,100.0
2023-01-15T08:48:33.744Z,100.0
2023-01-15T08:54:05.509Z,100.0
2023-01-15T08:59:37.279Z,100.0
2023-01-15T09:05:09.138Z,100.0
2023-01-15T09:10:40.776Z,100.0
2023-01-15T09:16:12.825Z,100.0
2023-01-15T09:21:44.165Z,100.0
2023-01-15T09:27:22.444Z,100.0
2023-01-15T09:32:54.017Z,100.0
2023-01-15T09:38:25.753Z,100.0
2023-01-15T09:43:57.830Z,100.0
2023-01-15T09:49:29.200Z,100.0
2023-01-15T09:55:01.070Z,100.0
2023-01-15T10:00:32.708Z,100.0
2023-01-15T10:06:04.492Z,100.0
2023-01-15T10:11:36.381Z,100.0
2023-01-15T10:17:07.741Z,100.0
2023-01-15T10:22:39.953Z,100.0
2023-01-15T10:28:18.303Z,100.0
2023-01-15T10:33:47.338Z,100.0
2023-01-15T10:39:21.483Z,100.0
2023-01-15T10:44:51.348Z,100.0
2023-01-15T10:50:22.503Z,100.0
2023-01-15T10:55:54.278Z,100.0
2023-01-15T11:01:26.485Z,100.0
2023-01-15T11:06:57.762Z,100.0
2023-01-15T11:12:29.468Z,100.0
2023-01-15T11:18:01.131Z,100.0
2023-01-15T11:23:32.916Z,100.0
2023-01-15T11:29:11.079Z,100.0
2023-01-15T11:34:42.872Z,100.0
2023-01-15T11:40:15.473Z,100.0
2023-01-15T11:45:46.289Z,100.0
2023-01-15T11:51:18.025Z,100.0
2023-01-15T11:56:49.690Z,100.0
2023-01-15T12:02:21.470Z,100.0
2023-01-15T12:07:53.198Z,100.0
2023-01-15T12:13:24.796Z,100.0
2023-01-15T12:18:56.591Z,100.0
2023-01-15T12:24:28.295Z,100.0
2023-01-15T12:30:04.570Z,100.0
2023-01-15T12:35:36.498Z,100.0
2023-01-15T12:41:07.827Z,100.0
2023-01-15T12:46:39.578Z,100.0
2023-01-15T12:52:11.266Z,100.0
2023-01-15T12:57:42.957Z,100.0
2023-01-15T13:03:14.697Z,100.0
2023-01-15T13:08:46.407Z,100.0
2023-01-15T13:14:18.071Z,100.0
2023-01-15T13:19:50.027Z,99.87
2023-01-15T13:25:21.622Z,98.27
2023-01-15T13:30:59.796Z,97.14
2023-01-15T13:36:31.524Z,97.28
2023-01-15T13:42:03.270Z,96.42
2023-01-15T13:47:34.872Z,95.52
2023-01-15T13:53:06.785Z,94.97
2023-01-15T13:58:38.525Z,94.32
2023-01-15T14:04:10.215Z,93.25
2023-01-15T14:09:41.966Z,91.7
2023-01-15T14:15:13.767Z,91.91
2023-01-15T14:20:45.505Z,90.07
2023-01-15T14:26:17.284Z,90.09
2023-01-15T14:31:53.508Z,88.13
2023-01-15T14:37:25.136Z,89.23
2023-01-15T14:42:56.699Z,88.23
2023-01-15T14:48:28.556Z,88.71
2023-01-15T14:54:00.553Z,89.13
2023-01-15T14:59:32.090Z,88.58
2023-01-15T15:05:03.861Z,89.31
2023-01-15T15:10:35.574Z,89.74
2023-01-15T15:16:07.672Z,89.0
2023-01-15T15:21:38.990Z,89.67
2023-01-15T15:27:10.642Z,89.66
2023-01-15T15:32:46.808Z,89.38
2023-01-15T15:38:18.501Z,89.63
2023-01-15T15:43:50.538Z,90.27
2023-01-15T15:49:22.060Z,89.44
2023-01-15T15:54:53.736Z,89.88
2023-01-15T16:00:25.442Z,89.26
2023-01-15T16:05:57.263Z,89.79
2023-01-15T16:11:28.863Z,89.41
2023-01-15T16:17:00.626Z,89.95
2023-01-15T16:22:32.492Z,89.46
2023-01-15T16:28:04.108Z,89.46
2023-01-15T16:33:40.377Z,89.14
2023-01-15T16:39:12.017Z,88.9
2023-01-15T16:44:43.802Z,88.62
2023-01-15T16:50:15.573Z,89.05
2023-01-15T16:55:47.235Z,89.02
2023-01-15T17:01:19.148Z,88.35
2023-01-15T17:06:50.724Z,88.83
2023-01-15T17:12:22.565Z,88.82
2023-01-15T17:17:54.245Z,89.43
2023-01-15T17:23:25.958Z,90.44
2023-01-15T17:28:57.596Z,90.6
2023-01-15T17:34:35.678Z,91.01
2023-01-15T17:40:07.470Z,91.12
2023-01-15T17:45:39.110Z,91.67
2023-01-15T17:51:10.865Z,91.76
2023-01-15T17:56:42.718Z,91.73
2023-01-15T18:02:14.598Z,92.14
2023-01-15T18:07:46.117Z,91.42
2023-01-15T18:13:17.838Z,91.54
2023-01-15T18:18:49.612Z,91.65
2023-01-15T18:24:21.228Z,91.97
2023-01-15T18:29:53.300Z,92.12
2023-01-15T18:35:29.226Z,92.2
2023-01-15T18:41:00.881Z,92.61
2023-01-15T18:46:32.661Z,92.69
2023-01-15T18:52:04.401Z,92.36
2023-01-15T18:57:36.125Z,91.46
2023-01-15T19:03:07.745Z,91.3
2023-01-15T19:08:39.536Z,91.29
2023-01-15T19:14:11.241Z,91.69
2023-01-15T19:19:43.069Z,91.55
2023-01-15T19:25:15.123Z,91.87
2023-01-15T19:30:46.464Z,91.84
2023-01-15T19:36:22.537Z,90.69
2023-01-15T19:41:55.127Z,90.96
2023-01-15T19:47:26.059Z,90.01
2023-01-15T19:52:57.771Z,89.36
2023-01-15T19:58:29.457Z,89.62
2023-01-15T20:04:01.268Z,89.43
2023-01-15T20:09:32.791Z,89.34
2023-01-15T20:15:04.513Z,89.08
2023-01-15T20:20:36.730Z,89.24
2023-01-15T20:26:08.188Z,89.13
2023-01-15T20:31:40.878Z,88.85
2023-01-15T20:37:17.556Z,88.58
2023-01-15T20:42:48.871Z,88.66
2023-01-15T20:48:20.351Z,88.37
2023-01-15T20:53:52.115Z,88.52
2023-01-15T20:59:23.992Z,88.73
2023-01-15T21:04:55.560Z,88.53
2023-01-15T21:10:27.240Z,88.14
2023-01-15T21:15:59.047Z,88.31
2023-01-15T21:21:31.172Z,87.89
2023-01-15T21:27:02.640Z,88.4
2023-01-15T21:32:34.313Z,88.0
2023-01-15T21:38:10.592Z,88.1
2023-01-15T21:43:42.340Z,87.41
2023-01-15T21:49:13.898Z,86.68
2023-01-15T21:54:45.586Z,86.72
2023-01-15T22:00:17.379Z,86.91
2023-01-15T22:05:49.061Z,87.23
2023-01-15T22:11:20.882Z,87.09
2023-01-15T22:16:52.621Z,87.51
2023-01-15T22:22:25.126Z,87.69
2023-01-15T22:27:56.859Z,87.39
2023-01-15T22:33:28.502Z,87.57
2023-01-15T22:39:04.590Z,88.9
2023-01-15T22:44:36.351Z,88.82
2023-01-15T22:50:07.991Z,89.74
2023-01-15T22:55:39.793Z,89.45
2023-01-15T23:01:11.621Z,89.02
2023-01-15T23:06:43.193Z,88.96
2023-01-15T23:12:14.885Z,89.18
2023-01-15T23:17:46.665Z,88.43
2023-01-15T23:23:18.303Z,88.43
2023-01-15T23:28:50.111Z,88.09
2023-01-15T23:34:21.776Z,87.56
2023-01-15T23:39:57.916Z,87.71
2023-01-15T23:45:29.728Z,86.97
2023-01-15T23:51:01.559Z,86.51
2023-01-15T23:56:33.241Z,87.04
